Time;durP1;ratioP1;P1;durP2;ratioP2;P2;SDS_P1;SDS_P2;PMS_P1;PMS_P2;Temp;Humidity;BMP_temperature;BMP_pressure;BME280_temperature;BME280_humidity;BME280_pressure;Samples;Min_cycle;Max_cycle;Signal;HPM_P1;HPM_P2
2021/04/30 00:01:05;;;;;;;34.08;14.15;;;;;;;13.29;65.50;97968.00;2178453;81;21607;-75
2021/04/30 00:04:07;;;;;;;33.95;13.85;;;;;;;13.29;65.79;97972.77;2178424;81;21300;-75
2021/04/30 00:07:09;;;;;;;31.68;13.10;;;;;;;13.30;66.70;97973.13;2178520;81;21166;-75
2021/04/30 00:10:11;;;;;;;30.00;10.63;;;;;;;13.24;66.93;97969.68;2178541;81;21693;-75
2021/04/30 00:13:13;;;;;;;28.45;10.88;;;;;;;13.18;69.05;97970.22;2178437;81;21260;-75
2021/04/30 00:16:15;;;;;;;27.62;10.60;;;;;;;13.04;68.20;97952.95;2178389;81;21300;-75
2021/04/30 00:19:17;;;;;;;27.15;10.88;;;;;;;12.99;68.39;97939.37;2178457;81;21150;-75
2021/04/30 00:22:19;;;;;;;27.25;10.72;;;;;;;12.94;68.15;97943.72;2178436;81;21300;-75
2021/04/30 00:25:21;;;;;;;27.50;10.70;;;;;;;12.90;68.82;97932.23;2178575;81;21261;-75
2021/04/30 00:28:23;;;;;;;29.77;10.88;;;;;;;12.94;68.38;97927.92;2178453;81;21736;-75
2021/04/30 00:31:25;;;;;;;26.85;9.75;;;;;;;12.90;70.08;97941.45;2178449;81;21146;-74
2021/04/30 00:34:27;;;;;;;22.35;7.92;;;;;;;12.75;71.77;97979.11;2178454;81;21273;-74
2021/04/30 00:37:29;;;;;;;22.35;6.58;;;;;;;12.52;72.48;97953.40;2178445;81;21292;-74
2021/04/30 00:40:31;;;;;;;19.92;6.50;;;;;;;12.36;76.30;97988.84;2178447;81;21289;-74
2021/04/30 00:43:33;;;;;;;23.07;6.72;;;;;;;12.29;72.11;97964.83;2178344;82;21757;-75
2021/04/30 00:46:35;;;;;;;19.27;6.28;;;;;;;12.33;75.27;97990.41;2178460;81;21315;-75
2021/04/30 00:49:37;;;;;;;23.30;6.97;;;;;;;12.33;72.46;97984.33;2178446;82;21268;-74
2021/04/30 00:52:39;;;;;;;22.40;7.28;;;;;;;12.35;71.68;97982.39;2178657;81;21134;-74
2021/04/30 00:55:41;;;;;;;20.48;7.03;;;;;;;12.48;71.81;97989.63;2178440;81;21301;-75
2021/04/30 00:58:43;;;;;;;23.27;9.10;;;;;;;12.62;71.59;97980.61;2178242;81;21269;-75
2021/04/30 01:01:45;;;;;;;21.48;7.65;;;;;;;12.64;71.64;97990.05;2178441;81;21693;-75
2021/04/30 01:04:47;;;;;;;22.93;8.23;;;;;;;12.74;71.42;97978.74;2178424;81;21165;-75
2021/04/30 01:07:49;;;;;;;23.05;8.20;;;;;;;12.67;71.27;97978.44;2178457;81;21281;-75
2021/04/30 01:10:51;;;;;;;21.90;7.90;;;;;;;12.64;72.24;97991.36;2178547;81;21265;-75
2021/04/30 01:13:53;;;;;;;24.67;10.15;;;;;;;12.69;71.65;97985.71;2178532;81;21713;-75
2021/04/30 01:16:55;;;;;;;28.27;10.90;;;;;;;12.64;72.56;97986.56;2178398;82;21305;-75
2021/04/30 01:19:57;;;;;;;25.50;10.18;;;;;;;12.59;72.52;97987.44;2178434;81;21145;-75
2021/04/30 01:22:59;;;;;;;37.80;16.32;;;;;;;12.57;72.34;97983.63;2178414;82;21606;-75
2021/04/30 01:26:02;;;;;;;;;;;;;;;12.55;73.08;97989.47;2153044;82;21281;-75
2021/04/30 01:29:04;;;;;;;29.65;10.53;;;;;;;12.47;72.87;97992.75;2126803;82;20475;-75
2021/04/30 01:32:07;;;;;;;28.80;10.80;;;;;;;12.45;72.80;97991.20;2178810;81;21732;-75
2021/04/30 01:35:09;;;;;;;41.23;15.83;;;;;;;12.43;73.05;97988.70;2178568;82;21752;-75
2021/04/30 01:38:11;;;;;;;29.72;9.30;;;;;;;12.48;73.17;97985.22;2178596;81;21328;-75
2021/04/30 01:41:13;;;;;;;23.85;8.58;;;;;;;12.59;72.87;97993.52;2178637;81;21138;-75
2021/04/30 01:44:15;;;;;;;25.37;8.90;;;;;;;12.55;72.53;97993.91;2178599;81;21277;-75
2021/04/30 01:47:17;;;;;;;24.70;8.88;;;;;;;12.51;72.69;97993.31;2178678;81;21700;-74
2021/04/30 01:50:19;;;;;;;25.35;9.18;;;;;;;12.55;72.65;97993.42;2178575;81;21272;-75
2021/04/30 01:53:21;;;;;;;23.62;8.55;;;;;;;12.55;72.71;97997.86;2178567;81;21268;-75
2021/04/30 01:56:23;;;;;;;23.87;8.93;;;;;;;12.64;73.04;98003.66;2178519;81;21296;-75
2021/04/30 01:59:25;;;;;;;24.85;9.53;;;;;;;12.67;72.43;98003.89;2178579;81;21729;-75
2021/04/30 02:02:27;;;;;;;25.68;10.23;;;;;;;12.62;72.45;98006.42;2178545;81;21285;-74
2021/04/30 02:05:29;;;;;;;26.77;10.95;;;;;;;12.61;73.05;98009.18;2178580;81;21194;-75
2021/04/30 02:08:31;;;;;;;25.82;10.40;;;;;;;12.67;73.29;98010.47;2178674;81;21302;-75
2021/04/30 02:11:32;;;;;;;26.48;10.18;;;;;;;12.68;73.35;98008.20;2178579;81;21284;-75
2021/04/30 02:14:34;;;;;;;27.27;10.53;;;;;;;12.70;73.31;98007.13;2178492;81;21297;-74
2021/04/30 02:17:36;;;;;;;27.35;11.22;;;;;;;12.80;73.68;98005.85;2178568;81;21265;-75
2021/04/30 02:20:38;;;;;;;27.32;11.08;;;;;;;12.82;73.53;98006.08;2178578;81;21269;-75
2021/04/30 02:23:40;;;;;;;28.27;11.43;;;;;;;12.83;73.18;98006.94;2178487;82;21728;-75
2021/04/30 02:26:42;;;;;;;28.40;11.45;;;;;;;12.88;73.13;98000.80;2178557;81;21277;-75
2021/04/30 02:29:45;;;;;;;;;;;;;;;12.87;73.13;98001.74;2181133;82;21634;-75
2021/04/30 02:32:47;;;;;;;25.87;10.93;;;;;;;12.85;73.57;98000.23;2178879;82;20249;-74
2021/04/30 02:35:48;;;;;;;30.48;11.25;;;;;;;12.83;73.37;98006.45;2179293;81;21285;-75
2021/04/30 02:38:50;;;;;;;32.98;12.65;;;;;;;12.80;73.42;98008.02;2178542;82;21284;-75
2021/04/30 02:41:53;;;;;;;30.52;12.05;;;;;;;12.74;73.53;98009.86;2178541;81;21741;-75
2021/04/30 02:44:55;;;;;;;32.93;14.20;;;;;;;12.70;73.86;98011.53;2178538;81;21154;-74
2021/04/30 02:47:57;;;;;;;33.78;14.00;;;;;;;12.71;73.71;98011.89;2178514;81;21743;-75
2021/04/30 02:50:59;;;;;;;30.20;12.53;;;;;;;12.70;74.04;98018.11;2178765;82;21150;-75
2021/04/30 02:54:01;;;;;;;30.68;12.33;;;;;;;12.79;74.25;98020.00;2178491;81;21724;-74
2021/04/30 02:57:03;;;;;;;26.68;11.22;;;;;;;12.84;74.31;98033.59;2178485;81;21146;-75
2021/04/30 03:00:06;;;;;;;27.25;11.40;;;;;;;12.84;73.83;98029.64;2178136;82;21067;-75
2021/04/30 03:03:08;;;;;;;29.50;11.40;;;;;;;12.89;74.31;98035.86;2178817;81;21155;-75
2021/04/30 03:06:10;;;;;;;26.73;10.85;;;;;;;12.76;74.43;98039.50;2178630;81;21262;-74
2021/04/30 03:09:12;;;;;;;27.50;11.55;;;;;;;12.72;75.01;98041.20;2178525;81;21272;-74
2021/04/30 03:12:14;;;;;;;26.55;10.58;;;;;;;12.59;75.00;98036.93;2178839;81;21177;-74
2021/04/30 03:15:16;;;;;;;26.55;11.40;;;;;;;12.57;74.81;98032.75;2178475;81;21280;-75
2021/04/30 03:18:18;;;;;;;26.27;11.22;;;;;;;12.55;75.03;98040.77;2178473;81;21308;-74
2021/04/30 03:21:20;;;;;;;29.00;13.03;;;;;;;12.57;74.77;98036.23;2178509;81;21289;-75
2021/04/30 03:24:22;;;;;;;29.12;12.35;;;;;;;12.53;75.98;98051.91;2178452;81;21752;-75
2021/04/30 03:27:26;;;;;;;27.87;12.25;;;;;;;12.42;76.10;98052.77;2178850;81;21182;-74
2021/04/30 03:30:28;;;;;;;29.40;11.95;;;;;;;12.32;76.86;98053.16;2178361;81;21272;-74
2021/04/30 03:33:30;;;;;;;29.67;12.63;;;;;;;12.31;76.18;98058.05;2178477;81;21107;-74
2021/04/30 03:36:33;;;;;;;30.85;12.63;;;;;;;12.32;76.17;98050.52;2178680;81;21304;-75
2021/04/30 03:39:35;;;;;;;29.90;13.22;;;;;;;12.46;76.22;98063.39;2178604;81;21304;-75
2021/04/30 03:42:37;;;;;;;29.23;13.43;;;;;;;12.46;76.22;98063.39;2178396;81;21289;-75
2021/04/30 03:45:38;;;;;;;35.48;13.90;;;;;;;12.41;76.01;98063.41;2178457;81;21721;-75
2021/04/30 03:48:41;;;;;;;35.15;15.30;;;;;;;12.36;76.46;98065.10;2178730;81;21717;-75
2021/04/30 03:51:42;;;;;;;29.92;13.35;;;;;;;12.32;76.12;98064.16;2178428;81;21285;-75
2021/04/30 03:54:45;;;;;;;32.70;12.85;;;;;;;12.30;76.06;98073.49;2178455;82;21760;-75
2021/04/30 03:57:47;;;;;;;28.75;13.62;;;;;;;12.34;76.41;98070.98;2178476;82;21264;-75
2021/04/30 04:00:49;;;;;;;30.45;13.30;;;;;;;12.38;76.62;98075.50;2178565;82;21704;-75
2021/04/30 04:03:51;;;;;;;34.33;13.35;;;;;;;12.37;77.32;98077.77;2178790;81;21292;-75
2021/04/30 04:06:53;;;;;;;28.45;11.75;;;;;;;12.31;77.22;98079.08;2178492;81;21272;-75
2021/04/30 04:09:55;;;;;;;26.50;11.83;;;;;;;12.24;77.75;98085.33;2178452;81;21788;-75
2021/04/30 04:12:57;;;;;;;31.10;12.85;;;;;;;12.15;78.76;98095.73;2178662;81;21281;-74
2021/04/30 04:16:02;;;;;;;30.75;13.72;;;;;;;12.12;78.73;98099.44;2178507;81;21289;-75
2021/04/30 04:19:03;;;;;;;26.00;11.65;;;;;;;12.15;78.39;98103.13;2178065;82;21265;-75
2021/04/30 04:22:05;;;;;;;29.07;12.95;;;;;;;12.11;78.94;98098.61;2178523;81;21317;-75
2021/04/30 04:25:07;;;;;;;30.27;13.38;;;;;;;12.10;78.91;98100.88;2178468;81;21320;-75
2021/04/30 04:28:09;;;;;;;29.40;13.62;;;;;;;12.12;79.12;98104.23;2178434;81;21626;-75
2021/04/30 04:31:11;;;;;;;29.32;12.98;;;;;;;12.16;78.67;98110.56;2178437;81;21662;-75
2021/04/30 04:34:12;;;;;;;33.80;14.05;;;;;;;12.32;78.74;98107.06;2178443;82;21277;-74
2021/04/30 04:37:15;;;;;;;30.02;13.62;;;;;;;12.47;78.63;98107.65;2178509;81;21277;-75
2021/04/30 04:40:17;;;;;;;34.45;14.60;;;;;;;12.51;78.66;98111.67;2178382;82;21300;-75
2021/04/30 04:43:19;;;;;;;32.55;15.03;;;;;;;12.58;79.03;98119.43;2178362;81;21305;-75
2021/04/30 04:46:21;;;;;;;33.90;16.32;;;;;;;12.64;77.90;98114.16;2178443;82;21728;-74
2021/04/30 04:49:23;;;;;;;35.25;15.20;;;;;;;12.68;78.16;98123.48;2178441;81;21276;-74
2021/04/30 04:52:24;;;;;;;29.27;13.70;;;;;;;12.71;78.56;98125.85;2178800;81;21296;-74
2021/04/30 04:55:26;;;;;;;28.90;13.40;;;;;;;12.72;79.00;98139.86;2150625;82;21312;-74
2021/04/30 04:58:29;;;;;;;29.32;13.15;;;;;;;12.71;79.11;98140.81;2178441;81;21757;-74
2021/04/30 05:01:31;;;;;;;32.10;12.82;;;;;;;12.68;79.24;98141.89;2178444;81;21280;-74
2021/04/30 05:04:33;;;;;;;29.48;13.43;;;;;;;12.62;79.37;98147.66;2178933;81;21297;-74
2021/04/30 05:07:35;;;;;;;30.50;13.78;;;;;;;12.55;79.69;98151.73;2178604;81;21305;-74
2021/04/30 05:10:37;;;;;;;30.52;13.68;;;;;;;12.50;80.20;98156.06;2150956;82;21273;-75
2021/04/30 05:13:39;;;;;;;30.30;13.35;;;;;;;12.47;80.87;98168.14;2178617;81;21693;-74
2021/04/30 05:16:41;;;;;;;32.28;13.90;;;;;;;12.43;80.64;98160.95;2178930;82;21127;-74
2021/04/30 05:19:43;;;;;;;30.08;13.80;;;;;;;12.47;80.62;98158.45;2178641;82;21261;-74
2021/04/30 05:22:45;;;;;;;31.17;14.18;;;;;;;12.48;81.42;98175.91;2178719;81;21162;-74
2021/04/30 05:25:47;;;;;;;30.97;13.40;;;;;;;12.44;81.95;98184.99;2178612;81;21728;-74
2021/04/30 05:28:49;;;;;;;27.90;11.88;;;;;;;12.44;82.02;98193.34;2178707;82;21272;-74
2021/04/30 05:31:51;;;;;;;29.65;11.93;;;;;;;12.44;80.09;98200.77;2178632;81;21574;-74
2021/04/30 05:34:55;;;;;;;28.38;11.43;;;;;;;12.44;80.42;98199.45;2178582;81;21276;-74
2021/04/30 05:37:57;;;;;;;28.67;12.10;;;;;;;12.42;79.28;98200.04;2178437;82;21293;-74
2021/04/30 05:40:59;;;;;;;25.02;10.95;;;;;;;12.52;80.07;98208.54;2178852;82;21126;-74
2021/04/30 05:44:01;;;;;;;25.82;10.23;;;;;;;12.60;78.65;98190.36;2178606;81;21722;-74
2021/04/30 05:47:03;;;;;;;28.15;11.00;;;;;;;12.68;78.12;98195.00;2178591;81;21741;-75
2021/04/30 05:50:05;;;;;;;26.90;10.38;;;;;;;12.76;77.67;98199.19;2178608;81;21292;-74
2021/04/30 05:53:07;;;;;;;22.52;9.45;;;;;;;13.03;76.10;98204.48;2178549;81;21305;-74
2021/04/30 05:56:09;;;;;;;23.20;8.30;;;;;;;13.16;73.80;98203.86;2178563;81;21293;-74
2021/04/30 05:59:11;;;;;;;21.93;7.72;;;;;;;13.13;71.64;98203.63;2178977;82;21298;-75
2021/04/30 06:02:13;;;;;;;22.00;7.45;;;;;;;13.12;71.82;98213.79;2178575;81;21252;-75
2021/04/30 06:05:15;;;;;;;21.50;8.08;;;;;;;13.15;68.46;98212.22;2178662;81;21717;-74
2021/04/30 06:08:17;;;;;;;21.85;7.90;;;;;;;13.12;69.82;98211.16;2178546;81;21269;-74
2021/04/30 06:11:19;;;;;;;20.70;7.58;;;;;;;13.20;68.06;98217.11;2178570;82;21269;-74
2021/04/30 06:14:22;;;;;;;20.90;7.22;;;;;;;13.13;68.13;98225.15;2178511;81;21277;-74
2021/04/30 06:17:24;;;;;;;20.40;8.15;;;;;;;13.05;67.37;98219.69;2178417;81;21337;-74
2021/04/30 06:20:26;;;;;;;;;;;;;;;12.97;68.86;98218.97;2181391;81;21147;-74
2021/04/30 06:23:28;;;;;;;21.43;7.57;;;;;;;12.95;68.12;98220.41;2178862;82;20228;-74
2021/04/30 06:26:30;;;;;;;19.23;6.80;;;;;;;12.91;66.58;98226.88;2178910;81;21394;-74
2021/04/30 06:29:32;;;;;;;;;;;;;;;13.04;65.24;98220.16;2180984;82;21301;-74
2021/04/30 06:32:38;;;;;;;21.25;7.15;;;;;;;13.23;64.60;98222.61;2178492;82;20185;-74
2021/04/30 06:35:39;;;;;;;18.85;6.20;;;;;;;13.31;65.17;98232.05;2178212;82;21281;-74
2021/04/30 06:38:41;;;;;;;18.90;6.28;;;;;;;13.37;64.62;98241.28;2178564;81;21264;-74
2021/04/30 06:41:43;;;;;;;19.77;6.85;;;;;;;13.41;64.90;98237.44;2178524;81;21808;-74
2021/04/30 06:44:45;;;;;;;18.55;6.30;;;;;;;13.29;63.12;98240.56;2178480;81;21756;-74
2021/04/30 06:47:47;;;;;;;15.13;5.35;;;;;;;13.22;65.02;98238.08;2178899;82;21154;-74
2021/04/30 06:50:49;;;;;;;18.30;5.85;;;;;;;13.26;64.23;98246.91;2178529;81;21265;-74
2021/04/30 06:53:51;;;;;;;20.62;6.92;;;;;;;13.42;62.66;98240.41;2178502;81;21728;-74
2021/04/30 06:56:53;;;;;;;17.17;5.37;;;;;;;13.48;63.96;98238.60;2178460;81;21281;-74
2021/04/30 06:59:54;;;;;;;16.00;5.47;;;;;;;13.53;61.81;98248.75;2178536;81;21312;-74
2021/04/30 07:02:56;;;;;;;19.23;5.45;;;;;;;13.57;59.67;98251.00;2178578;81;21277;-73
2021/04/30 07:05:58;;;;;;;17.62;5.45;;;;;;;13.76;61.53;98245.53;2178513;82;21285;-74
2021/04/30 07:09:00;;;;;;;16.60;5.28;;;;;;;14.00;57.99;98246.59;2178526;81;21300;-74
2021/04/30 07:12:02;;;;;;;14.93;5.12;;;;;;;14.23;58.04;98243.31;2178462;81;21273;-74
2021/04/30 07:15:04;;;;;;;19.17;6.45;;;;;;;14.45;57.10;98242.33;2178463;81;21297;-73
2021/04/30 07:18:06;;;;;;;17.67;5.72;;;;;;;14.67;55.96;98254.52;2178508;81;21741;-74
2021/04/30 07:21:09;;;;;;;17.92;5.53;;;;;;;15.11;57.60;98244.96;2178497;81;21285;-74
2021/04/30 07:24:11;;;;;;;16.50;5.62;;;;;;;15.43;53.49;98249.19;2178307;81;21276;-74
2021/04/30 07:27:17;;;;;;;14.90;5.08;;;;;;;15.34;52.78;98242.08;2178484;81;21138;-73
2021/04/30 07:30:17;;;;;;;13.85;4.47;;;;;;;14.75;53.15;98247.24;2178073;82;21281;-74
2021/04/30 07:33:19;;;;;;;17.23;5.20;;;;;;;14.75;53.15;98247.24;2178794;82;21150;-74
2021/04/30 07:36:21;;;;;;;;;;;;;;;14.71;53.03;98242.73;2180950;81;21586;-74
2021/04/30 07:39:23;;;;;;;16.35;4.85;;;;;;;14.56;52.35;98261.18;2178810;82;20122;-74
2021/04/30 07:42:25;;;;;;;13.75;4.28;;;;;;;14.62;51.91;98257.20;2178451;82;21272;-74
2021/04/30 07:45:27;;;;;;;15.32;4.75;;;;;;;15.05;49.83;98254.27;2161879;81;21345;-74
2021/04/30 07:48:29;;;;;;;15.48;4.78;;;;;;;15.23;50.75;98250.48;2161083;82;21170;-74
2021/04/30 07:51:31;;;;;;;13.62;4.95;;;;;;;15.13;51.23;98245.67;2161232;82;21321;-74
2021/04/30 07:54:33;;;;;;;13.83;4.45;;;;;;;15.14;50.46;98252.64;2139931;82;21258;-73
2021/04/30 07:57:35;;;;;;;14.25;4.50;;;;;;;14.97;49.39;98262.05;2161100;82;21302;-74
2021/04/30 08:00:37;;;;;;;17.40;4.80;;;;;;;14.98;50.77;98255.78;2161057;82;21099;-74
2021/04/30 08:03:39;;;;;;;16.17;4.95;;;;;;;15.48;49.53;98261.48;2161027;82;21139;-73
2021/04/30 08:06:41;;;;;;;15.03;4.40;;;;;;;15.76;46.93;98274.36;2140226;82;21726;-73
2021/04/30 08:09:43;;;;;;;13.00;4.80;;;;;;;15.49;44.66;98264.48;2161026;82;21159;-74
2021/04/30 08:12:45;;;;;;;17.35;5.20;;;;;;;15.74;47.36;98269.68;2161036;82;21151;-74
2021/04/30 08:15:47;;;;;;;16.48;4.80;;;;;;;15.94;45.49;98273.17;2161028;82;21123;-73
2021/04/30 08:18:49;;;;;;;;;;;;;;;16.35;45.84;98261.06;2163637;82;21270;-73
2021/04/30 08:21:51;;;;;;;15.25;4.85;;;;;;;16.66;44.01;98271.39;2160988;82;20233;-74
2021/04/30 08:24:53;;;;;;;14.98;4.90;;;;;;;16.67;41.75;98270.91;2161284;82;21290;-74
2021/04/30 08:27:55;;;;;;;14.80;4.53;;;;;;;16.55;41.90;98264.95;2161371;81;21312;-74
2021/04/30 08:30:57;;;;;;;17.07;5.12;;;;;;;16.42;44.75;98273.21;2161127;82;21122;-74
2021/04/30 08:33:59;;;;;;;17.25;5.15;;;;;;;16.43;45.00;98278.86;2161009;82;21175;-74
2021/04/30 08:37:01;;;;;;;16.25;5.00;;;;;;;16.50;45.32;98271.19;2161006;82;21159;-74
2021/04/30 08:40:03;;;;;;;15.60;5.05;;;;;;;16.26;41.43;98285.25;2161245;82;21273;-74
2021/04/30 08:43:05;;;;;;;14.53;4.78;;;;;;;15.94;43.35;98267.89;2161159;82;21319;-74
2021/04/30 08:46:07;;;;;;;17.65;5.22;;;;;;;16.03;45.25;98275.48;2161221;82;21340;-73
2021/04/30 08:49:09;;;;;;;17.12;5.50;;;;;;;16.40;45.21;98268.06;2140176;82;21104;-74
2021/04/30 08:52:12;;;;;;;14.40;5.10;;;;;;;16.72;43.42;98269.97;2161108;82;21286;-74
2021/04/30 08:55:15;;;;;;;16.60;5.50;;;;;;;16.72;43.42;98269.97;2161294;82;21717;-74
2021/04/30 08:58:23;;;;;;;17.80;5.83;;;;;;;16.30;40.92;98308.78;2161111;82;21289;-74
2021/04/30 09:01:23;;;;;;;15.53;5.03;;;;;;;16.30;40.92;98308.78;2161162;82;21280;-74
2021/04/30 09:04:25;;;;;;;12.68;4.45;;;;;;;16.30;41.09;98296.88;2161214;82;21294;-74
2021/04/30 09:07:27;;;;;;;15.50;5.08;;;;;;;16.66;42.49;98287.77;2161216;82;21262;-74
2021/04/30 09:10:29;;;;;;;14.33;4.87;;;;;;;16.61;41.13;98293.01;2161208;82;21277;-74
2021/04/30 09:13:31;;;;;;;13.95;4.58;;;;;;;16.60;43.89;98294.48;2161189;82;21265;-74
2021/04/30 09:16:33;;;;;;;14.50;5.12;;;;;;;16.54;40.07;98278.69;2161241;82;21269;-74
2021/04/30 09:19:35;;;;;;;16.65;5.15;;;;;;;16.75;42.64;98280.27;2161183;82;21730;-74
2021/04/30 09:22:38;;;;;;;16.17;5.30;;;;;;;16.93;40.40;98293.61;2161152;82;21702;-73
2021/04/30 09:25:40;;;;;;;15.68;5.17;;;;;;;16.93;43.75;98297.08;2161416;81;21273;-74
2021/04/30 09:28:42;;;;;;;15.68;4.20;;;;;;;17.25;43.71;98302.91;2161199;82;21265;-74
2021/04/30 09:31:44;;;;;;;13.05;4.50;;;;;;;17.27;38.51;98308.41;2161251;82;21317;-74
2021/04/30 09:34:46;;;;;;;17.60;5.20;;;;;;;16.72;37.10;98318.48;2161272;82;21273;-74
2021/04/30 09:37:48;;;;;;;;;;;;;;;16.70;37.89;98319.11;2163613;82;21153;-74
2021/04/30 09:40:50;;;;;;;14.53;4.72;;;;;;;16.61;39.49;98298.80;2161176;82;20273;-74
2021/04/30 09:43:54;;;;;;;15.40;4.70;;;;;;;16.96;38.70;98295.96;2164859;82;21690;-74
2021/04/30 09:46:55;;;;;;;17.15;5.20;;;;;;;17.29;37.58;98310.41;2178476;81;21288;-74
2021/04/30 09:49:58;;;;;;;;;;;;;;;17.31;40.12;98299.19;2181289;81;21685;-74
2021/04/30 09:53:00;;;;;;;17.52;5.35;;;;;;;17.29;38.32;98305.61;2178685;82;20230;-74
2021/04/30 09:56:02;;;;;;;15.30;4.47;;;;;;;17.30;36.77;98301.48;2150651;82;21296;-74
2021/04/30 09:59:04;;;;;;;14.53;4.55;;;;;;;17.18;35.76;98305.81;2178934;81;21142;-74
2021/04/30 10:02:06;;;;;;;13.80;4.80;;;;;;;17.16;38.20;98307.80;2178409;82;21268;-74
2021/04/30 10:05:08;;;;;;;14.20;4.60;;;;;;;17.26;36.59;98314.69;2178573;81;21728;-74
2021/04/30 10:08:10;;;;;;;16.10;4.78;;;;;;;17.48;36.03;98291.38;2178514;81;21280;-74
2021/04/30 10:11:12;;;;;;;14.23;4.97;;;;;;;18.08;40.16;98290.77;2150654;82;21289;-73
2021/04/30 10:14:14;;;;;;;15.53;4.80;;;;;;;18.07;36.24;98289.61;2178781;81;21159;-74
2021/04/30 10:17:16;;;;;;;;;;;;;;;17.92;34.38;98293.31;2153315;82;21305;-74
2021/04/30 10:20:18;;;;;;;17.15;5.10;;;;;;;18.12;37.96;98282.03;2178649;82;20198;-73
2021/04/30 10:23:20;;;;;;;14.80;4.72;;;;;;;18.47;36.74;98285.56;2178547;81;21103;-74
2021/04/30 10:26:22;;;;;;;13.78;4.87;;;;;;;18.73;37.02;98292.67;2178541;81;21143;-74
2021/04/30 10:29:24;;;;;;;14.68;5.08;;;;;;;18.85;38.77;98291.41;2178729;81;21297;-74
2021/04/30 10:32:26;;;;;;;16.12;4.70;;;;;;;18.89;36.02;98287.45;2178529;81;21709;-73
2021/04/30 10:35:28;;;;;;;12.98;4.42;;;;;;;18.90;36.15;98285.13;2178506;81;21158;-74
2021/04/30 10:38:30;;;;;;;;;;;;;;;19.24;35.82;98286.92;2181089;81;21277;-74
2021/04/30 10:41:34;;;;;;;12.70;4.20;;;;;;;19.37;33.61;98283.28;2178792;82;20220;-74
2021/04/30 10:44:36;;;;;;;15.30;4.50;;;;;;;19.46;33.28;98300.59;2178347;81;21277;-74
2021/04/30 10:47:38;;;;;;;;;;;;;;;19.20;34.71;98277.59;2153241;82;21263;-74
2021/04/30 10:50:40;;;;;;;13.15;4.20;;;;;;;18.43;34.51;98289.52;2179260;82;20149;-74
2021/04/30 10:53:43;;;;;;;;;;;;;;;18.85;35.60;98277.63;2181090;81;21704;-74
2021/04/30 10:56:45;;;;;;;10.88;3.70;;;;;;;19.25;33.82;98274.45;2178474;82;20504;-74
2021/04/30 10:59:49;;;;;;;;;;;;;;;19.44;35.00;98267.52;2181344;81;21167;-74
2021/04/30 11:02:53;;;;;;;14.78;4.47;;;;;;;19.59;33.70;98278.33;2178452;82;20497;-74
2021/04/30 11:05:55;;;;;;;10.82;3.62;;;;;;;19.68;36.19;98276.52;2150429;82;21249;-74
2021/04/30 11:09:01;;;;;;;13.00;4.10;;;;;;;19.91;33.86;98287.36;2178369;81;21733;-74
2021/04/30 11:12:01;;;;;;;9.05;3.30;;;;;;;19.79;34.55;98286.86;2178121;82;21273;-74
2021/04/30 11:15:04;;;;;;;12.53;3.92;;;;;;;19.94;33.46;98274.22;2178732;81;21138;-74
2021/04/30 11:18:06;;;;;;;12.65;4.10;;;;;;;19.93;32.80;98284.05;2178400;81;21269;-74
2021/04/30 11:21:09;;;;;;;11.83;3.83;;;;;;;19.83;31.32;98308.66;2178614;82;21281;-74
2021/04/30 11:24:11;;;;;;;13.68;3.80;;;;;;;19.29;32.22;98317.00;2178377;81;21766;-74
2021/04/30 11:27:13;;;;;;;12.75;4.10;;;;;;;19.04;34.52;98284.52;2178389;82;21555;-74
2021/04/30 11:30:15;;;;;;;;;;;;;;;19.26;33.85;98294.73;2180994;81;21276;-74
2021/04/30 11:33:17;;;;;;;11.50;3.70;;;;;;;19.32;31.54;98279.45;2178469;82;20246;-74
2021/04/30 11:36:20;;;;;;;;;;;;;;;19.40;35.29;98251.55;2180958;81;21305;-74
2021/04/30 11:39:22;;;;;;;12.43;3.47;;;;;;;19.91;33.12;98271.39;2178620;82;20224;-74
2021/04/30 11:42:24;;;;;;;9.80;3.65;;;;;;;19.90;31.97;98285.20;2178376;81;21285;-74
2021/04/30 11:45:26;;;;;;;;;;;;;;;19.51;35.13;98266.34;2171233;81;21294;-74
2021/04/30 11:48:27;;;;;;;10.95;3.33;;;;;;;20.09;33.92;98264.57;2161050;82;20134;-74
2021/04/30 11:51:29;;;;;;;;;;;;;;;20.08;33.17;98274.88;2163628;82;21599;-74
2021/04/30 11:54:31;;;;;;;9.98;3.50;;;;;;;20.01;31.62;98280.54;2161055;82;20131;-74
2021/04/30 11:57:33;;;;;;;;;;;;;;;20.02;30.79;98295.52;2163504;82;21151;-74
2021/04/30 12:00:35;;;;;;;14.18;4.00;;;;;;;19.82;30.92;98277.72;2161140;82;20154;-74
2021/04/30 12:03:37;;;;;;;13.58;4.10;;;;;;;20.26;32.46;98256.06;2139953;82;21258;-74
2021/04/30 12:06:40;;;;;;;12.85;3.85;;;;;;;20.55;32.41;98242.67;2161150;82;21722;-74
2021/04/30 12:09:41;;;;;;;;;;;;;;;20.44;29.07;98262.50;2163524;82;21151;-74
2021/04/30 12:12:43;;;;;;;13.10;3.70;;;;;;;20.52;31.97;98262.48;2161348;82;20245;-74
2021/04/30 12:15:45;;;;;;;;;;;;;;;20.58;30.62;98261.79;2163475;82;21171;-74
2021/04/30 12:18:47;;;;;;;13.10;3.50;;;;;;;20.76;30.58;98259.45;2161133;82;20437;-74
2021/04/30 12:21:49;;;;;;;;;;;;;;;20.56;31.24;98232.35;2163502;82;21159;-74
2021/04/30 12:24:51;;;;;;;12.10;3.55;;;;;;;20.16;28.87;98276.20;2160977;82;20154;-74
2021/04/30 12:27:53;;;;;;;11.18;3.60;;;;;;;19.16;29.07;98271.77;2160973;82;21119;-74
2021/04/30 12:30:55;;;;;;;;;;;;;;;19.04;29.38;98281.86;2163498;82;21146;-74
2021/04/30 12:33:57;;;;;;;;;;;;;;;19.16;29.43;98258.47;2163846;82;20249;-74
2021/04/30 12:36:59;;;;;;;;;;;;;;;19.51;32.12;98254.38;2163568;82;20265;-74
2021/04/30 12:40:02;;;;;;;;;;;;;;;19.78;27.87;98260.39;2142426;82;20126;-74
2021/04/30 12:43:04;;;;;;;;;;;;;;;20.06;32.54;98268.39;2163875;82;20253;-74
2021/04/30 12:46:06;;;;;;;;;;;;;;;20.11;28.32;98249.25;2175667;81;20232;-74
2021/04/30 12:49:08;;;;;;;;;;;;;;;20.46;27.58;98265.84;2180922;82;20177;-74
2021/04/30 12:52:10;;;;;;;;;;;;;;;20.21;25.25;98285.02;2180900;82;20133;-74
2021/04/30 12:55:12;;;;;;;;;;;;;;;19.66;24.87;98288.64;2180852;82;20134;-75
2021/04/30 12:58:14;;;;;;;;;;;;;;;19.52;26.02;98278.66;2181160;82;20471;-74
2021/04/30 13:01:16;;;;;;;;;;;;;;;19.72;27.85;98272.52;2153023;82;20225;-74
2021/04/30 13:04:19;;;;;;;;;;;;;;;19.69;27.59;98280.33;2180900;82;20134;-74
2021/04/30 13:07:21;;;;;;;;;;;;;;;19.62;25.95;98283.83;2180924;82;20224;-74
2021/04/30 13:10:23;;;;;;;;;;;;;;;19.57;26.32;98271.03;2181009;82;20413;-74
2021/04/30 13:13:25;;;;;;;;;;;;;;;19.44;27.49;98266.67;2181117;82;20264;-74
2021/04/30 13:16:27;;;;;;;;;;;;;;;19.42;27.97;98279.31;2180987;82;20126;-75
2021/04/30 13:19:29;;;;;;;;;;;;;;;19.45;29.65;98266.53;2181003;82;20137;-74
2021/04/30 13:22:31;;;;;;;;;;;;;;;19.42;29.42;98256.70;2180848;82;20165;-74
2021/04/30 13:25:33;;;;;;;;;;;;;;;19.58;28.43;98255.38;2181049;82;20226;-74
2021/04/30 13:28:34;;;;;;;;;;;;;;;19.63;27.84;98250.92;2181183;82;20542;-74
2021/04/30 13:31:37;;;;;;;;;;;;;;;19.74;30.35;98257.25;2181042;82;20133;-74
2021/04/30 13:34:39;;;;;;;;;;;;;;;20.14;28.53;98252.08;2181204;82;20496;-74
2021/04/30 13:37:41;;;;;;;;;;;;;;;20.20;28.74;98252.72;2181040;82;20229;-74
2021/04/30 13:40:43;;;;;;;;;;;;;;;20.20;28.93;98245.59;2181082;82;20134;-74
2021/04/30 13:43:45;;;;;;;;;;;;;;;20.17;28.89;98250.41;2181428;82;20193;-74
2021/04/30 13:46:47;;;;;;;;;;;;;;;19.94;28.69;98240.48;2181164;81;20496;-74
2021/04/30 13:49:49;;;;;;;;;;;;;;;20.03;30.24;98248.77;2181156;82;20489;-74
2021/04/30 13:52:51;;;;;;;;;;;;;;;20.22;29.01;98238.25;2181185;82;20263;-74
2021/04/30 13:55:53;;;;;;;;;;;;;;;20.22;29.75;98234.77;2181069;82;20413;-74
2021/04/30 13:59:02;;;;;;;;;;;;;;;20.03;29.50;98253.27;2181041;82;20253;-74
2021/04/30 14:01:59;;;;;;;;;;;;;;;19.53;30.13;98247.91;2180313;82;20138;-74
2021/04/30 14:05:01;;;;;;;;;;;;;;;19.04;30.81;98236.69;2181055;82;20230;-74
2021/04/30 14:08:04;;;;;;;;;;;;;;;19.25;31.10;98247.86;2181050;82;20229;-74
2021/04/30 14:11:06;;;;;;;;;;;;;;;19.18;31.34;98243.72;2181033;82;20540;-74
2021/04/30 14:14:08;;;;;;;;;;;;;;;19.55;30.25;98241.94;2181045;82;20229;-74
2021/04/30 14:17:10;;;;;;;;;;;;;;;19.89;30.98;98246.27;2153379;82;20237;-74
2021/04/30 14:20:13;;;;;;;;;;;;;;;20.32;29.34;98251.89;2181176;82;20230;-74
2021/04/30 14:23:14;;;;;;;;;;;;;;;19.95;30.26;98244.78;2181015;82;20268;-74